sensor_id;sensor_type;location;lat;lon;timestamp;pressure;altitude;pressure_sealevel;temperature;humidity
60258;BME280;46115;44.484;11.314;2023-02-13T00:03:02;102391.47;;;5.49;56.82
60258;BME280;46115;44.484;11.314;2023-02-13T00:07:05;102390.56;;;5.23;58.19
60258;BME280;46115;44.484;11.314;2023-02-13T00:11:09;102386.06;;;4.96;58.45
60258;BME280;46115;44.484;11.314;2023-02-13T00:15:11;102393.03;;;4.92;58.39
60258;BME280;46115;44.484;11.314;2023-02-13T00:19:13;102378.00;;;4.58;59.20
60258;BME280;46115;44.484;11.314;2023-02-13T00:23:15;102396.44;;;4.78;59.23
60258;BME280;46115;44.484;11.314;2023-02-13T00:27:19;102400.72;;;4.63;60.01
60258;BME280;46115;44.484;11.314;2023-02-13T00:31:21;102397.25;;;4.69;59.46
60258;BME280;46115;44.484;11.314;2023-02-13T00:35:24;102395.47;;;4.57;60.53
60258;BME280;46115;44.484;11.314;2023-02-13T00:39:27;102397.22;;;4.63;60.99
60258;BME280;46115;44.484;11.314;2023-02-13T00:43:31;102410.22;;;4.51;61.48
60258;BME280;46115;44.484;11.314;2023-02-13T00:47:33;102402.38;;;4.51;61.72
60258;BME280;46115;44.484;11.314;2023-02-13T00:51:35;102409.28;;;4.39;62.58
60258;BME280;46115;44.484;11.314;2023-02-13T00:55:38;102414.47;;;4.32;62.69
60258;BME280;46115;44.484;11.314;2023-02-13T00:59:43;102418.00;;;4.35;62.77
60258;BME280;46115;44.484;11.314;2023-02-13T01:03:45;102404.94;;;4.42;62.78
60258;BME280;46115;44.484;11.314;2023-02-13T01:07:49;102416.25;;;4.36;62.79
60258;BME280;46115;44.484;11.314;2023-02-13T01:11:52;102411.06;;;4.45;62.77
60258;BME280;46115;44.484;11.314;2023-02-13T01:15:56;102406.69;;;4.46;61.65
60258;BME280;46115;44.484;11.314;2023-02-13T01:19:58;102417.75;;;4.10;62.79
60258;BME280;46115;44.484;11.314;2023-02-13T01:24:02;102417.25;;;4.52;61.23
60258;BME280;46115;44.484;11.314;2023-02-13T01:28:05;102407.59;;;4.48;61.48
60258;BME280;46115;44.484;11.314;2023-02-13T01:32:09;102404.66;;;4.08;62.60
60258;BME280;46115;44.484;11.314;2023-02-13T01:36:12;102403.94;;;4.23;61.67
60258;BME280;46115;44.484;11.314;2023-02-13T01:40:15;102414.53;;;4.39;61.20
60258;BME280;46115;44.484;11.314;2023-02-13T01:44:46;102404.09;;;4.46;61.14
60258;BME280;46115;44.484;11.314;2023-02-13T01:48:52;102414.31;;;4.14;62.35
60258;BME280;46115;44.484;11.314;2023-02-13T01:52:59;102417.94;;;4.29;61.82
60258;BME280;46115;44.484;11.314;2023-02-13T01:57:07;102410.19;;;4.43;61.49
60258;BME280;46115;44.484;11.314;2023-02-13T02:01:11;102418.00;;;4.37;61.27
60258;BME280;46115;44.484;11.314;2023-02-13T02:05:15;102423.09;;;4.17;61.95
60258;BME280;46115;44.484;11.314;2023-02-13T02:09:21;102408.34;;;4.31;62.00
60258;BME280;46115;44.484;11.314;2023-02-13T02:13:26;102403.16;;;4.34;62.53
60258;BME280;46115;44.484;11.314;2023-02-13T02:17:36;102409.47;;;4.62;62.07
60258;BME280;46115;44.484;11.314;2023-02-13T02:26:36;102397.91;;;4.33;63.25
60258;BME280;46115;44.484;11.314;2023-02-13T02:35:46;102402.28;;;4.38;62.60
60258;BME280;46115;44.484;11.314;2023-02-13T02:40:03;102403.13;;;4.33;62.75
60258;BME280;46115;44.484;11.314;2023-02-13T02:44:24;102410.97;;;4.30;62.96
60258;BME280;46115;44.484;11.314;2023-02-13T02:48:34;102396.13;;;4.32;63.17
60258;BME280;46115;44.484;11.314;2023-02-13T02:53:13;102390.06;;;4.34;62.80
60258;BME280;46115;44.484;11.314;2023-02-13T02:57:22;102397.03;;;4.34;62.88
60258;BME280;46115;44.484;11.314;2023-02-13T03:01:32;102397.81;;;4.22;63.13
60258;BME280;46115;44.484;11.314;2023-02-13T03:05:53;102396.94;;;4.20;63.56
60258;BME280;46115;44.484;11.314;2023-02-13T03:10:28;102395.22;;;4.25;63.56
60258;BME280;46115;44.484;11.314;2023-02-13T03:14:49;102399.66;;;4.37;63.63
60258;BME280;46115;44.484;11.314;2023-02-13T03:18:55;102392.66;;;4.33;63.74
60258;BME280;46115;44.484;11.314;2023-02-13T03:23:22;102390.97;;;4.41;63.64
60258;BME280;46115;44.484;11.314;2023-02-13T03:27:35;102394.38;;;4.31;63.81
60258;BME280;46115;44.484;11.314;2023-02-13T03:32:06;102392.47;;;4.10;64.48
60258;BME280;46115;44.484;11.314;2023-02-13T03:36:13;102402.22;;;4.28;63.52
60258;BME280;46115;44.484;11.314;2023-02-13T03:40:38;102390.00;;;4.25;63.92
60258;BME280;46115;44.484;11.314;2023-02-13T03:45:10;102411.84;;;4.29;63.42
60258;BME280;46115;44.484;11.314;2023-02-13T03:49:34;102422.13;;;4.11;63.76
60258;BME280;46115;44.484;11.314;2023-02-13T03:53:58;102414.44;;;4.26;63.98
60258;BME280;46115;44.484;11.314;2023-02-13T03:58:04;102378.59;;;4.19;63.81
60258;BME280;46115;44.484;11.314;2023-02-13T04:02:29;102437.16;;;4.30;64.94
60258;BME280;46115;44.484;11.314;2023-02-13T04:06:39;102438.81;;;4.19;64.74
60258;BME280;46115;44.484;11.314;2023-02-13T04:10:49;102430.13;;;4.24;64.81
60258;BME280;46115;44.484;11.314;2023-02-13T04:14:57;102437.88;;;4.14;65.65
60258;BME280;46115;44.484;11.314;2023-02-13T04:19:04;102440.75;;;4.44;64.71
60258;BME280;46115;44.484;11.314;2023-02-13T04:23:10;102439.75;;;4.27;64.18
60258;BME280;46115;44.484;11.314;2023-02-13T04:27:14;102435.34;;;4.23;64.73
60258;BME280;46115;44.484;11.314;2023-02-13T04:31:17;102446.84;;;4.43;65.01
60258;BME280;46115;44.484;11.314;2023-02-13T04:35:21;102454.56;;;4.23;64.97
60258;BME280;46115;44.484;11.314;2023-02-13T04:39:23;102441.53;;;4.32;65.47
60258;BME280;46115;44.484;11.314;2023-02-13T04:43:25;102431.72;;;4.10;65.33
60258;BME280;46115;44.484;11.314;2023-02-13T04:47:27;102450.16;;;4.19;65.87
60258;BME280;46115;44.484;11.314;2023-02-13T04:51:31;102452.84;;;4.27;65.75
60258;BME280;46115;44.484;11.314;2023-02-13T04:55:34;102451.78;;;4.10;66.43
60258;BME280;46115;44.484;11.314;2023-02-13T04:59:36;102445.69;;;4.11;65.35
60258;BME280;46115;44.484;11.314;2023-02-13T05:03:38;102456.09;;;4.01;65.11
60258;BME280;46115;44.484;11.314;2023-02-13T05:07:42;102443.88;;;4.03;65.16
60258;BME280;46115;44.484;11.314;2023-02-13T05:11:44;102432.53;;;4.01;65.48
60258;BME280;46115;44.484;11.314;2023-02-13T05:15:46;102459.25;;;3.71;66.06
60258;BME280;46115;44.484;11.314;2023-02-13T05:19:49;102465.19;;;3.55;66.80
60258;BME280;46115;44.484;11.314;2023-02-13T05:23:52;102461.63;;;3.47;66.55
60258;BME280;46115;44.484;11.314;2023-02-13T05:27:55;102453.53;;;3.30;66.29
60258;BME280;46115;44.484;11.314;2023-02-13T05:31:57;102453.41;;;3.20;66.77
60258;BME280;46115;44.484;11.314;2023-02-13T05:36:00;102450.50;;;2.97;67.23
60258;BME280;46115;44.484;11.314;2023-02-13T05:40:04;102447.84;;;2.94;67.12
60258;BME280;46115;44.484;11.314;2023-02-13T05:44:07;102450.25;;;2.78;68.78
60258;BME280;46115;44.484;11.314;2023-02-13T05:48:10;102460.16;;;3.04;68.72
60258;BME280;46115;44.484;11.314;2023-02-13T05:52:12;102438.38;;;3.03;68.13
60258;BME280;46115;44.484;11.314;2023-02-13T05:56:16;102451.88;;;2.73;68.47
60258;BME280;46115;44.484;11.314;2023-02-13T06:00:19;102469.25;;;2.71;68.76
60258;BME280;46115;44.484;11.314;2023-02-13T06:04:22;102462.34;;;2.75;68.20
60258;BME280;46115;44.484;11.314;2023-02-13T06:08:25;102458.13;;;2.81;68.28
60258;BME280;46115;44.484;11.314;2023-02-13T06:12:28;102469.13;;;2.62;68.70
60258;BME280;46115;44.484;11.314;2023-02-13T06:16:31;102478.69;;;2.60;68.84
60258;BME280;46115;44.484;11.314;2023-02-13T06:20:33;102478.75;;;2.65;68.88
60258;BME280;46115;44.484;11.314;2023-02-13T06:24:36;102468.31;;;2.66;68.76
60258;BME280;46115;44.484;11.314;2023-02-13T06:28:39;102478.69;;;2.62;68.85
60258;BME280;46115;44.484;11.314;2023-02-13T06:32:42;102478.75;;;2.65;69.09
60258;BME280;46115;44.484;11.314;2023-02-13T06:36:44;102464.84;;;2.67;68.65
60258;BME280;46115;44.484;11.314;2023-02-13T06:40:47;102479.69;;;2.70;69.08
60258;BME280;46115;44.484;11.314;2023-02-13T06:44:51;102443.72;;;2.50;68.93
60258;BME280;46115;44.484;11.314;2023-02-13T06:48:53;102469.25;;;2.70;69.48
60258;BME280;46115;44.484;11.314;2023-02-13T06:52:56;102487.75;;;2.84;69.24
60258;BME280;46115;44.484;11.314;2023-02-13T06:56:58;102490.44;;;2.88;69.02
60258;BME280;46115;44.484;11.314;2023-02-13T07:01:02;102485.38;;;3.00;68.54
60258;BME280;46115;44.484;11.314;2023-02-13T07:05:04;102502.13;;;3.15;68.74
60258;BME280;46115;44.484;11.314;2023-02-13T07:09:07;102513.59;;;3.24;68.79
60258;BME280;46115;44.484;11.314;2023-02-13T07:13:10;102508.69;;;3.49;67.82
60258;BME280;46115;44.484;11.314;2023-02-13T07:17:15;102519.41;;;3.70;67.83
60258;BME280;46115;44.484;11.314;2023-02-13T07:21:17;102523.72;;;3.65;68.08
60258;BME280;46115;44.484;11.314;2023-02-13T07:25:19;102535.34;;;4.82;65.16
60258;BME280;46115;44.484;11.314;2023-02-13T07:29:22;102536.03;;;6.09;60.69
60258;BME280;46115;44.484;11.314;2023-02-13T07:33:25;102538.69;;;7.15;57.42
60258;BME280;46115;44.484;11.314;2023-02-13T07:37:28;102531.72;;;6.78;57.83
60258;BME280;46115;44.484;11.314;2023-02-13T07:41:31;102542.16;;;7.40;55.85
60258;BME280;46115;44.484;11.314;2023-02-13T07:45:33;102549.06;;;9.05;52.18
60258;BME280;46115;44.484;11.314;2023-02-13T07:49:37;102546.16;;;10.65;46.57
60258;BME280;46115;44.484;11.314;2023-02-13T07:53:40;102540.56;;;10.83;47.29
60258;BME280;46115;44.484;11.314;2023-02-13T07:57:42;102548.69;;;12.09;44.11
60258;BME280;46115;44.484;11.314;2023-02-13T08:01:44;102552.41;;;11.13;46.20
60258;BME280;46115;44.484;11.314;2023-02-13T08:05:48;102549.63;;;12.07;44.17
60258;BME280;46115;44.484;11.314;2023-02-13T08:09:50;102552.84;;;12.94;41.16
60258;BME280;46115;44.484;11.314;2023-02-13T08:14:10;102553.81;;;14.46;38.62
60258;BME280;46115;44.484;11.314;2023-02-13T08:18:12;102542.81;;;11.95;42.64
60258;BME280;46115;44.484;11.314;2023-02-13T08:22:15;102557.34;;;14.47;38.69
60258;BME280;46115;44.484;11.314;2023-02-13T08:26:18;102551.59;;;15.12;37.14
60258;BME280;46115;44.484;11.314;2023-02-13T08:30:20;102553.75;;;17.28;33.32
60258;BME280;46115;44.484;11.314;2023-02-13T08:34:22;102559.16;;;17.67;32.66
60258;BME280;46115;44.484;11.314;2023-02-13T08:38:26;102556.47;;;17.67;31.67
60258;BME280;46115;44.484;11.314;2023-02-13T08:42:29;102554.28;;;17.77;31.71
60258;BME280;46115;44.484;11.314;2023-02-13T08:46:31;102553.31;;;20.37;28.22
60258;BME280;46115;44.484;11.314;2023-02-13T08:50:33;102554.31;;;18.51;30.43
60258;BME280;46115;44.484;11.314;2023-02-13T08:54:37;102554.63;;;19.83;29.27
60258;BME280;46115;44.484;11.314;2023-02-13T08:58:39;102552.38;;;20.70;27.67
60258;BME280;46115;44.484;11.314;2023-02-13T09:02:41;102553.66;;;19.84;29.06
60258;BME280;46115;44.484;11.314;2023-02-13T09:06:44;102545.19;;;20.23;28.47
60258;BME280;46115;44.484;11.314;2023-02-13T09:10:54;102540.34;;;20.45;28.16
60258;BME280;46115;44.484;11.314;2023-02-13T09:14:57;102542.66;;;22.13;26.52
60258;BME280;46115;44.484;11.314;2023-02-13T09:18:59;102544.88;;;22.47;26.21
60258;BME280;46115;44.484;11.314;2023-02-13T09:23:02;102544.25;;;23.36;24.99
60258;BME280;46115;44.484;11.314;2023-02-13T09:27:06;102551.75;;;22.38;26.33
60258;BME280;46115;44.484;11.314;2023-02-13T09:31:11;102544.91;;;23.64;24.99
60258;BME280;46115;44.484;11.314;2023-02-13T09:35:15;102550.13;;;22.36;26.36
60258;BME280;46115;44.484;11.314;2023-02-13T09:39:17;102553.28;;;23.09;25.46
60258;BME280;46115;44.484;11.314;2023-02-13T09:43:27;102543.34;;;22.70;25.34
60258;BME280;46115;44.484;11.314;2023-02-13T09:47:31;102552.28;;;21.01;27.41
60258;BME280;46115;44.484;11.314;2023-02-13T09:51:35;102549.13;;;21.39;27.66
60258;BME280;46115;44.484;11.314;2023-02-13T09:55:44;102541.53;;;19.92;29.80
60258;BME280;46115;44.484;11.314;2023-02-13T09:59:57;102541.59;;;18.73;31.32
60258;BME280;46115;44.484;11.314;2023-02-13T10:04:24;102542.31;;;16.62;35.37
60258;BME280;46115;44.484;11.314;2023-02-13T10:08:36;102533.16;;;16.90;35.24
60258;BME280;46115;44.484;11.314;2023-02-13T10:12:58;102538.88;;;15.45;37.56
60258;BME280;46115;44.484;11.314;2023-02-13T10:17:11;102528.59;;;15.82;37.86
60258;BME280;46115;44.484;11.314;2023-02-13T10:21:19;102532.16;;;15.35;37.96
60258;BME280;46115;44.484;11.314;2023-02-13T10:25:24;102530.34;;;15.10;39.04
60258;BME280;46115;44.484;11.314;2023-02-13T10:29:35;102534.81;;;14.29;40.91
60258;BME280;46115;44.484;11.314;2023-02-13T10:34:01;102532.22;;;14.55;39.86
60258;BME280;46115;44.484;11.314;2023-02-13T10:38:13;102526.84;;;14.57;40.28
60258;BME280;46115;44.484;11.314;2023-02-13T10:42:21;102526.91;;;14.27;40.90
60258;BME280;46115;44.484;11.314;2023-02-13T10:46:32;102513.09;;;14.15;42.06
60258;BME280;46115;44.484;11.314;2023-02-13T10:50:42;102511.25;;;14.17;42.33
60258;BME280;46115;44.484;11.314;2023-02-13T10:54:56;102506.47;;;14.00;43.01
60258;BME280;46115;44.484;11.314;2023-02-13T10:59:09;102505.75;;;13.95;42.41
60258;BME280;46115;44.484;11.314;2023-02-13T11:03:21;102515.19;;;13.76;42.71
60258;BME280;46115;44.484;11.314;2023-02-13T11:07:26;102506.53;;;13.38;43.61
60258;BME280;46115;44.484;11.314;2023-02-13T11:11:31;102491.94;;;12.89;44.53
60258;BME280;46115;44.484;11.314;2023-02-13T11:15:34;102488.75;;;13.40;43.61
60258;BME280;46115;44.484;11.314;2023-02-13T11:19:39;102487.38;;;13.27;43.89
60258;BME280;46115;44.484;11.314;2023-02-13T11:23:51;102482.22;;;13.52;43.83
60258;BME280;46115;44.484;11.314;2023-02-13T11:28:06;102475.25;;;13.48;43.62
60258;BME280;46115;44.484;11.314;2023-02-13T11:32:20;102472.41;;;13.24;43.39
60258;BME280;46115;44.484;11.314;2023-02-13T11:36:26;102468.28;;;12.78;45.62
60258;BME280;46115;44.484;11.314;2023-02-13T11:40:31;102453.31;;;13.08;44.98
60258;BME280;46115;44.484;11.314;2023-02-13T11:44:33;102458.25;;;12.91;44.86
60258;BME280;46115;44.484;11.314;2023-02-13T11:48:35;102457.28;;;12.94;45.28
60258;BME280;46115;44.484;11.314;2023-02-13T11:52:37;102445.94;;;12.89;44.04
60258;BME280;46115;44.484;11.314;2023-02-13T11:56:47;102449.22;;;12.97;43.84
60258;BME280;46115;44.484;11.314;2023-02-13T12:05:26;102442.56;;;12.48;44.88
60258;BME280;46115;44.484;11.314;2023-02-13T12:09:29;102438.06;;;12.86;44.88
60258;BME280;46115;44.484;11.314;2023-02-13T12:13:37;102423.97;;;12.49;44.99
60258;BME280;46115;44.484;11.314;2023-02-13T12:17:42;102423.88;;;12.87;44.11
60258;BME280;46115;44.484;11.314;2023-02-13T12:21:58;102416.72;;;12.89;44.91
60258;BME280;46115;44.484;11.314;2023-02-13T12:26:14;102417.56;;;12.91;45.05
60258;BME280;46115;44.484;11.314;2023-02-13T12:30:51;102410.75;;;12.46;44.84
60258;BME280;46115;44.484;11.314;2023-02-13T12:35:20;102390.28;;;12.53;45.12
60258;BME280;46115;44.484;11.314;2023-02-13T12:39:32;102400.53;;;12.65;44.25
60258;BME280;46115;44.484;11.314;2023-02-13T12:44:05;102387.44;;;12.59;45.34
60258;BME280;46115;44.484;11.314;2023-02-13T12:48:19;102387.50;;;12.58;44.79
60258;BME280;46115;44.484;11.314;2023-02-13T12:52:33;102375.66;;;12.37;44.85
60258;BME280;46115;44.484;11.314;2023-02-13T12:56:52;102367.25;;;12.21;45.69
60258;BME280;46115;44.484;11.314;2023-02-13T13:01:06;102359.00;;;12.32;45.37
60258;BME280;46115;44.484;11.314;2023-02-13T13:05:28;102352.59;;;12.39;45.92
60258;BME280;46115;44.484;11.314;2023-02-13T13:09:48;102349.03;;;12.40;45.72
60258;BME280;46115;44.484;11.314;2023-02-13T13:14:02;102341.84;;;12.11;46.09
60258;BME280;46115;44.484;11.314;2023-02-13T13:18:20;102332.91;;;12.47;44.95
60258;BME280;46115;44.484;11.314;2023-02-13T13:22:32;102334.19;;;12.34;45.95
60258;BME280;46115;44.484;11.314;2023-02-13T13:26:37;102328.69;;;12.40;45.71
60258;BME280;46115;44.484;11.314;2023-02-13T13:30:42;102330.56;;;12.37;44.76
60258;BME280;46115;44.484;11.314;2023-02-13T13:34:45;102333.69;;;12.20;44.96
60258;BME280;46115;44.484;11.314;2023-02-13T13:38:58;102335.72;;;12.09;45.08
60258;BME280;46115;44.484;11.314;2023-02-13T13:43:14;102332.63;;;11.92;45.11
60258;BME280;46115;44.484;11.314;2023-02-13T13:47:25;102337.06;;;12.25;44.40
60258;BME280;46115;44.484;11.314;2023-02-13T13:51:33;102315.34;;;12.11;44.88
60258;BME280;46115;44.484;11.314;2023-02-13T14:00:27;102334.97;;;12.04;45.95
60258;BME280;46115;44.484;11.314;2023-02-13T14:04:37;102330.56;;;12.37;44.99
60258;BME280;46115;44.484;11.314;2023-02-13T14:08:59;102334.22;;;12.33;44.95
60258;BME280;46115;44.484;11.314;2023-02-13T14:13:01;102333.75;;;12.17;45.21
60258;BME280;46115;44.484;11.314;2023-02-13T14:17:12;102328.69;;;12.40;44.86
60258;BME280;46115;44.484;11.314;2023-02-13T14:21:21;102327.03;;;12.36;44.96
60258;BME280;46115;44.484;11.314;2023-02-13T14:25:26;102325.38;;;12.32;45.68
60258;BME280;46115;44.484;11.314;2023-02-13T14:29:31;102293.03;;;11.85;45.90
60258;BME280;46115;44.484;11.314;2023-02-13T14:33:35;102313.25;;;11.90;45.88
60258;BME280;46115;44.484;11.314;2023-02-13T14:37:47;102319.25;;;12.30;45.34
60258;BME280;46115;44.484;11.314;2023-02-13T14:41:58;102315.16;;;12.18;45.62
60258;BME280;46115;44.484;11.314;2023-02-13T14:46:07;102276.59;;;12.05;45.59
60258;BME280;46115;44.484;11.314;2023-02-13T14:50:17;102307.38;;;12.43;44.72
60258;BME280;46115;44.484;11.314;2023-02-13T14:54:25;102293.47;;;12.03;45.52
60258;BME280;46115;44.484;11.314;2023-02-13T14:58:30;102300.31;;;12.11;46.01
60258;BME280;46115;44.484;11.314;2023-02-13T15:02:36;102301.22;;;12.10;46.08
60258;BME280;46115;44.484;11.314;2023-02-13T15:06:44;102302.94;;;12.11;46.10
60258;BME280;46115;44.484;11.314;2023-02-13T15:10:58;102301.81;;;12.22;45.26
60258;BME280;46115;44.484;11.314;2023-02-13T15:15:04;102299.34;;;12.15;45.83
60258;BME280;46115;44.484;11.314;2023-02-13T15:19:20;102302.94;;;12.11;46.15
60258;BME280;46115;44.484;11.314;2023-02-13T15:23:26;102279.44;;;11.99;45.18
60258;BME280;46115;44.484;11.314;2023-02-13T15:27:31;102293.25;;;12.10;45.64
60258;BME280;46115;44.484;11.314;2023-02-13T15:31:34;102282.06;;;11.99;46.30
60258;BME280;46115;44.484;11.314;2023-02-13T15:35:38;102283.66;;;11.71;46.49
60258;BME280;46115;44.484;11.314;2023-02-13T15:39:42;102285.44;;;11.70;46.35
60258;BME280;46115;44.484;11.314;2023-02-13T15:43:46;102284.09;;;11.90;45.82
60258;BME280;46115;44.484;11.314;2023-02-13T15:47:49;102291.78;;;11.63;46.40
60258;BME280;46115;44.484;11.314;2023-02-13T15:52:03;102295.41;;;11.59;46.83
60258;BME280;46115;44.484;11.314;2023-02-13T15:56:13;102282.13;;;11.61;46.38
60258;BME280;46115;44.484;11.314;2023-02-13T16:00:20;102287.66;;;11.51;46.80
60258;BME280;46115;44.484;11.314;2023-02-13T16:04:25;102287.41;;;11.62;47.41
60258;BME280;46115;44.484;11.314;2023-02-13T16:08:32;102290.16;;;11.57;47.48
60258;BME280;46115;44.484;11.314;2023-02-13T16:12:44;102288.72;;;11.43;47.91
60258;BME280;46115;44.484;11.314;2023-02-13T16:16:50;102288.84;;;11.38;47.51
60258;BME280;46115;44.484;11.314;2023-02-13T16:20:54;102295.16;;;11.33;47.85
60258;BME280;46115;44.484;11.314;2023-02-13T16:25:04;102298.50;;;11.41;47.92
60258;BME280;46115;44.484;11.314;2023-02-13T16:29:13;102273.63;;;11.11;48.41
60258;BME280;46115;44.484;11.314;2023-02-13T16:33:22;102288.38;;;11.21;48.33
60258;BME280;46115;44.484;11.314;2023-02-13T16:37:30;102298.59;;;10.98;48.81
60258;BME280;46115;44.484;11.314;2023-02-13T16:41:33;102295.13;;;10.94;48.50
60258;BME280;46115;44.484;11.314;2023-02-13T16:45:37;102294.25;;;10.95;49.32
60258;BME280;46115;44.484;11.314;2023-02-13T16:49:40;102290.09;;;10.83;49.48
60258;BME280;46115;44.484;11.314;2023-02-13T16:53:42;102292.00;;;10.30;51.14
60258;BME280;46115;44.484;11.314;2023-02-13T16:57:44;102287.28;;;10.48;50.84
60258;BME280;46115;44.484;11.314;2023-02-13T23:06:10;102338.16;;;5.49;66.90
60258;BME280;46115;44.484;11.314;2023-02-13T23:10:13;102331.16;;;5.45;66.87
60258;BME280;46115;44.484;11.314;2023-02-13T23:14:16;102338.13;;;5.30;66.61
60258;BME280;46115;44.484;11.314;2023-02-13T23:18:18;102322.31;;;5.15;67.43
60258;BME280;46115;44.484;11.314;2023-02-13T23:22:22;102325.81;;;5.13;67.60
60258;BME280;46115;44.484;11.314;2023-02-13T23:26:24;102327.56;;;5.08;68.16
60258;BME280;46115;44.484;11.314;2023-02-13T23:30:27;102330.19;;;5.12;67.92
60258;BME280;46115;44.484;11.314;2023-02-13T23:34:30;102321.44;;;5.07;68.23
60258;BME280;46115;44.484;11.314;2023-02-13T23:38:33;102314.44;;;5.05;68.29
60258;BME280;46115;44.484;11.314;2023-02-13T23:42:35;102310.03;;;4.90;68.65
60258;BME280;46115;44.484;11.314;2023-02-13T23:46:38;102310.84;;;4.80;68.96
60258;BME280;46115;44.484;11.314;2023-02-13T23:50:40;102303.03;;;4.86;68.57
60258;BME280;46115;44.484;11.314;2023-02-13T23:54:44;102294.25;;;4.76;68.92
60258;BME280;46115;44.484;11.314;2023-02-13T23:58:46;102311.72;;;4.85;68.83
